Time;durP1;ratioP1;P1;durP2;ratioP2;P2;SDS_P1;SDS_P2;PMS_P1;PMS_P2;Temp;Humidity;BMP_temperature;BMP_pressure;BME280_temperature;BME280_humidity;BME280_pressure;Samples;Min_cycle;Max_cycle;Signal;HPM_P1;HPM_P2
2023/06/08 00:00:50;;;;;;;46.50;38.00;;;12.40;99.90;;;;;;5004533;28;20046;-58
2023/06/08 00:03:19;;;;;;;40.65;36.72;;;12.40;99.90;;;;;;5005207;28;20046;-58
2023/06/08 00:05:51;;;;;;;43.25;38.40;;;12.40;99.90;;;;;;5002875;28;20092;-58
2023/06/08 00:08:16;;;;;;;42.78;38.20;;;12.30;99.90;;;;;;5003990;28;20108;-58
2023/06/08 00:10:42;;;;;;;42.97;38.28;;;12.80;99.90;;;;;;5003027;28;20039;-58
2023/06/08 00:13:08;;;;;;;44.13;39.42;;;12.40;99.90;;;;;;5002049;28;20499;-58
2023/06/08 00:15:34;;;;;;;42.50;38.08;;;12.20;99.90;;;;;;5002903;28;20034;-58
2023/06/08 00:18:03;;;;;;;43.65;38.88;;;12.30;99.90;;;;;;5004135;28;20120;-58
2023/06/08 00:20:28;;;;;;;45.80;38.83;;;12.40;99.90;;;;;;5004839;28;20041;-58
2023/06/08 00:22:56;;;;;;;46.42;40.83;;;12.10;99.90;;;;;;5004179;28;20280;-59
2023/06/08 00:25:22;;;;;;;47.45;42.50;;;12.10;99.90;;;;;;5004307;28;20050;-57
2023/06/08 00:27:47;;;;;;;44.40;39.83;;;12.40;99.90;;;;;;5004088;28;20087;-58
2023/06/08 00:30:16;;;;;;;42.97;38.58;;;12.10;99.90;;;;;;5002615;28;20504;-58
2023/06/08 00:32:42;;;;;;;45.28;39.85;;;12.30;99.90;;;;;;5004295;28;20046;-57
2023/06/08 00:35:08;;;;;;;44.63;38.00;;;12.20;99.90;;;;;;5004608;28;20034;-58
2023/06/08 00:37:35;;;;;;;43.67;39.33;;;12.40;99.90;;;;;;5003979;28;20124;-58
2023/06/08 00:40:03;;;;;;;46.33;39.58;;;12.40;99.90;;;;;;5004741;28;20052;-58
2023/06/08 00:42:29;;;;;;;48.33;39.10;;;12.20;99.90;;;;;;5003883;28;20120;-58
2023/06/08 00:44:55;;;;;;;43.65;38.10;;;12.50;99.90;;;;;;5004483;28;20496;-57
2023/06/08 00:47:20;;;;;;;45.67;38.88;;;12.50;99.90;;;;;;5003709;28;20072;-58
2023/06/08 00:49:46;;;;;;;44.40;40.05;;;12.40;99.90;;;;;;5004093;28;20053;-58
2023/06/08 00:52:12;;;;;;;45.78;41.28;;;12.20;99.90;;;;;;5004024;28;20046;-57
2023/06/08 00:54:39;;;;;;;44.33;39.78;;;12.30;99.90;;;;;;5004440;28;20104;-58
2023/06/08 00:57:06;;;;;;;44.67;39.80;;;12.50;99.90;;;;;;5003399;28;21011;-58
2023/06/08 00:59:32;;;;;;;44.00;39.22;;;12.40;99.90;;;;;;5004250;28;20124;-57
2023/06/08 01:01:58;;;;;;;43.22;38.55;;;12.20;99.90;;;;;;5007781;28;20099;-58
2023/06/08 01:04:25;;;;;;;42.50;37.40;;;12.40;99.90;;;;;;5008195;28;20452;-58
2023/06/08 01:07:14;;;;;;;41.72;37.40;;;12.20;99.90;;;;;;5008049;28;20088;-58
2023/06/08 01:10:03;;;;;;;47.55;37.30;;;12.50;99.90;;;;;;5007976;28;20048;-58
2023/06/08 01:12:51;;;;;;;41.63;36.55;;;12.30;99.90;;;;;;4999890;28;20042;-58
2023/06/08 01:15:23;;;;;;;40.88;36.03;;;12.30;99.90;;;;;;5020424;28;20053;-58
2023/06/08 01:17:53;;;;;;;41.50;37.25;;;12.20;99.90;;;;;;4998073;28;20423;-58
2023/06/08 01:20:47;;;;;;;40.65;36.45;;;12.40;99.90;;;;;;5009180;28;20053;-58
2023/06/08 01:23:40;;;;;;;39.92;35.88;;;12.60;99.90;;;;;;5009454;28;20072;-57
2023/06/08 01:26:10;;;;;;;40.92;36.90;;;12.30;99.90;;;;;;4999508;28;20092;-57
2023/06/08 01:28:39;;;;;;;41.70;37.30;;;12.30;99.90;;;;;;5009404;28;20048;-57
2023/06/08 01:31:05;;;;;;;41.85;37.13;;;12.40;99.90;;;;;;5009522;28;20041;-57
2023/06/08 01:33:31;;;;;;;39.92;35.72;;;12.30;99.90;;;;;;5007962;28;20430;-58
2023/06/08 01:36:18;;;;;;;40.75;36.45;;;12.60;99.90;;;;;;5009231;28;20057;-58
2023/06/08 01:38:53;;;;;;;41.45;36.95;;;12.40;99.90;;;;;;5005489;28;20046;-58
2023/06/08 01:41:31;;;;;;;44.13;37.65;;;12.40;99.90;;;;;;5004881;28;20054;-58
2023/06/08 01:43:59;;;;;;;41.35;36.83;;;12.30;99.90;;;;;;5003670;28;20065;-58
2023/06/08 01:46:27;;;;;;;41.45;37.00;;;12.60;99.90;;;;;;5003402;28;20801;-57
2023/06/08 01:48:58;;;;;;;41.85;36.42;;;12.40;99.90;;;;;;5003723;28;20053;-58
2023/06/08 01:51:25;;;;;;;41.38;36.85;;;12.50;99.90;;;;;;5002398;28;20050;-58
2023/06/08 01:54:02;;;;;;;43.38;38.75;;;12.40;99.90;;;;;;5003582;28;20466;-59
2023/06/08 01:56:33;;;;;;;43.17;38.58;;;12.40;99.90;;;;;;5002773;28;20045;-58
2023/06/08 01:58:58;;;;;;;47.97;39.25;;;12.50;99.90;;;;;;5005525;28;20046;-57
2023/06/08 02:01:24;;;;;;;41.88;37.35;;;12.50;99.90;;;;;;5005309;28;20050;-58
2023/06/08 02:03:50;;;;;;;43.00;38.03;;;12.50;99.90;;;;;;5007066;28;20075;-58
2023/06/08 02:06:16;;;;;;;43.80;39.03;;;12.70;99.90;;;;;;5007158;28;20038;-58
2023/06/08 02:08:42;;;;;;;42.03;37.38;;;12.50;99.90;;;;;;5007029;28;20057;-58
2023/06/08 02:11:08;;;;;;;47.03;37.42;;;13.00;99.90;;;;;;5003432;28;20200;-58
2023/06/08 02:13:34;;;;;;;43.25;38.28;;;12.60;99.90;;;;;;5005954;28;20092;-58
2023/06/08 02:16:00;;;;;;;41.97;36.53;;;12.50;99.90;;;;;;5006817;28;20037;-58
2023/06/08 02:18:26;;;;;;;39.20;35.42;;;12.40;99.90;;;;;;5005155;28;20129;-58
2023/06/08 02:20:52;;;;;;;40.45;36.38;;;12.60;99.90;;;;;;5006623;28;20132;-58
2023/06/08 02:23:18;;;;;;;41.58;36.67;;;12.50;99.90;;;;;;5006761;28;20412;-57
2023/06/08 02:25:44;;;;;;;40.95;36.67;;;12.50;99.90;;;;;;5006850;28;20132;-58
2023/06/08 02:28:10;;;;;;;39.75;35.75;;;12.80;99.90;;;;;;5007121;28;20613;-58
2023/06/08 02:30:35;;;;;;;43.42;35.88;;;12.60;99.90;;;;;;5006004;28;20411;-58
2023/06/08 02:33:01;;;;;;;42.30;35.25;;;12.80;99.90;;;;;;5006433;28;20413;-58
2023/06/08 02:35:26;;;;;;;40.30;35.42;;;12.60;99.90;;;;;;5004739;28;20132;-58
2023/06/08 02:37:52;;;;;;;39.72;35.60;;;12.70;99.90;;;;;;5008614;28;20508;-58
2023/06/08 02:40:18;;;;;;;42.30;35.08;;;13.20;99.90;;;;;;5008039;28;20104;-58
2023/06/08 02:42:43;;;;;;;42.05;34.78;;;12.90;99.90;;;;;;5008045;28;20054;-58
2023/06/08 02:45:09;;;;;;;43.38;35.97;;;12.90;99.90;;;;;;5007648;28;20050;-58
2023/06/08 02:47:35;;;;;;;39.92;35.85;;;12.70;99.90;;;;;;5006453;28;20045;-58
2023/06/08 02:50:00;;;;;;;41.80;36.13;;;12.70;99.90;;;;;;5008017;28;20365;-58
2023/06/08 02:52:26;;;;;;;41.15;36.85;;;12.90;99.90;;;;;;5008211;28;20049;-58
2023/06/08 02:54:52;;;;;;;40.03;35.70;;;13.00;99.90;;;;;;5007923;28;20518;-58
2023/06/08 02:57:17;;;;;;;40.17;35.90;;;13.30;99.90;;;;;;5007674;28;20578;-58
2023/06/08 02:59:43;;;;;;;39.90;35.83;;;12.80;99.90;;;;;;4989632;28;20056;-58
2023/06/08 03:02:09;;;;;;;44.03;36.20;;;13.00;99.90;;;;;;5007542;28;20126;-58
2023/06/08 03:04:34;;;;;;;40.40;36.05;;;12.90;99.90;;;;;;5007602;28;20479;-58
2023/06/08 03:07:01;;;;;;;42.22;36.22;;;12.70;99.90;;;;;;5007337;28;20424;-61
2023/06/08 03:09:30;;;;;;;40.80;36.40;;;13.00;99.90;;;;;;5005601;28;20077;-58
2023/06/08 03:11:56;;;;;;;43.40;36.30;;;12.80;99.90;;;;;;5005654;28;20037;-58
2023/06/08 03:14:28;;;;;;;46.92;37.08;;;12.70;99.90;;;;;;5005271;28;20046;-58
2023/06/08 03:16:57;;;;;;;41.17;36.30;;;12.70;99.90;;;;;;5007965;28;20042;-58
2023/06/08 03:19:24;;;;;;;41.75;36.60;;;12.70;99.90;;;;;;5007429;28;20104;-58
2023/06/08 03:21:50;;;;;;;42.28;37.70;;;13.10;99.90;;;;;;5007713;28;20037;-58
2023/06/08 03:24:17;;;;;;;42.15;37.85;;;12.80;99.90;;;;;;5007482;28;20093;-58
2023/06/08 03:26:43;;;;;;;46.53;40.78;;;13.00;99.90;;;;;;5007660;28;20528;-59
2023/06/08 03:29:08;;;;;;;45.00;40.40;;;13.10;99.90;;;;;;5007697;28;20076;-58
2023/06/08 03:31:36;;;;;;;47.85;42.03;;;13.00;99.90;;;;;;5007608;28;20042;-59
2023/06/08 03:34:06;;;;;;;46.17;41.55;;;13.00;99.90;;;;;;5007732;28;20081;-58
2023/06/08 03:36:35;;;;;;;47.95;42.58;;;12.90;99.90;;;;;;5005828;28;20065;-58
2023/06/08 03:39:01;;;;;;;52.38;41.90;;;13.10;99.90;;;;;;5007817;28;20041;-58
2023/06/08 03:41:27;;;;;;;47.67;41.50;;;12.90;99.90;;;;;;5007315;28;20054;-58
2023/06/08 03:43:54;;;;;;;47.13;41.53;;;13.10;99.90;;;;;;5006070;28;20064;-58
2023/06/08 03:46:20;;;;;;;45.70;40.72;;;12.80;99.90;;;;;;5007256;28;20131;-58
2023/06/08 03:48:47;;;;;;;45.08;40.47;;;12.80;99.90;;;;;;5005850;28;20065;-58
2023/06/08 03:51:13;;;;;;;46.47;39.85;;;13.00;99.90;;;;;;5006787;28;20057;-58
2023/06/08 03:53:39;;;;;;;45.80;41.20;;;13.00;99.90;;;;;;5005819;28;20034;-58
2023/06/08 03:56:05;;;;;;;51.47;41.30;;;12.90;99.90;;;;;;5005646;28;20550;-57
2023/06/08 03:58:30;;;;;;;44.13;39.63;;;13.30;99.90;;;;;;5006994;28;20042;-58
2023/06/08 04:00:56;;;;;;;49.83;40.80;;;13.00;99.90;;;;;;5006273;28;20033;-58
2023/06/08 04:03:25;;;;;;;45.22;40.30;;;13.40;99.90;;;;;;5006877;28;20038;-58
2023/06/08 04:05:51;;;;;;;42.67;38.15;;;12.90;99.90;;;;;;5006472;28;20053;-58
2023/06/08 04:08:17;;;;;;;43.08;38.67;;;13.20;99.90;;;;;;5004729;28;20084;-58
2023/06/08 04:10:43;;;;;;;44.85;38.80;;;13.20;99.90;;;;;;5003928;28;21147;-58
2023/06/08 04:13:09;;;;;;;43.33;38.88;;;13.00;99.90;;;;;;5005303;28;20046;-58
2023/06/08 04:15:35;;;;;;;42.83;38.63;;;13.10;99.90;;;;;;5006060;28;20052;-58
2023/06/08 04:18:02;;;;;;;45.33;37.60;;;13.00;99.90;;;;;;5006087;28;20469;-59
2023/06/08 04:20:28;;;;;;;42.42;36.75;;;13.30;99.90;;;;;;5006007;28;20046;-58
2023/06/08 04:22:53;;;;;;;42.30;37.58;;;13.10;99.90;;;;;;5006921;28;20125;-58
2023/06/08 04:25:19;;;;;;;41.03;36.78;;;13.10;99.90;;;;;;5006737;28;20595;-58
2023/06/08 04:27:46;;;;;;;42.13;36.45;;;13.10;99.90;;;;;;5006707;28;20117;-58
2023/06/08 04:30:12;;;;;;;39.88;35.75;;;13.30;99.90;;;;;;5004799;28;20045;-58
2023/06/08 04:32:37;;;;;;;39.88;35.70;;;13.40;99.90;;;;;;5006418;28;20470;-58
2023/06/08 04:35:04;;;;;;;39.40;35.10;;;13.30;99.90;;;;;;5006296;28;20042;-58
2023/06/08 04:37:30;;;;;;;39.47;35.13;;;13.60;99.90;;;;;;5005351;28;20088;-58
2023/06/08 04:39:56;;;;;;;39.10;34.83;;;13.60;99.90;;;;;;5006143;28;20045;-58
2023/06/08 04:42:23;;;;;;;39.50;35.13;;;13.60;99.90;;;;;;5006432;28;20061;-58
2023/06/08 04:44:50;;;;;;;39.47;35.22;;;13.70;99.90;;;;;;5005573;28;20478;-57
2023/06/08 04:47:17;;;;;;;39.17;34.72;;;13.70;99.90;;;;;;5005978;28;20042;-58
2023/06/08 04:49:42;;;;;;;39.15;34.95;;;13.80;99.90;;;;;;5004944;28;20135;-58
2023/06/08 04:52:09;;;;;;;41.55;35.65;;;14.10;99.90;;;;;;5005830;28;20042;-58
2023/06/08 04:54:36;;;;;;;38.95;34.75;;;13.80;99.90;;;;;;5005503;28;20120;-58
2023/06/08 04:57:03;;;;;;;40.05;35.78;;;13.70;99.90;;;;;;5005374;28;20050;-60
2023/06/08 04:59:29;;;;;;;41.90;36.10;;;13.80;99.90;;;;;;5005458;28;20046;-58
2023/06/08 05:01:55;;;;;;;44.65;36.25;;;13.90;99.90;;;;;;5005073;28;20073;-58
2023/06/08 05:04:21;;;;;;;40.55;36.35;;;14.00;99.90;;;;;;5005577;28;20050;-58
2023/06/08 05:06:47;;;;;;;40.53;35.20;;;13.90;99.90;;;;;;5004420;28;20492;-58
2023/06/08 05:09:13;;;;;;;37.80;34.15;;;13.90;99.90;;;;;;5004023;28;20157;-57
2023/06/08 05:11:39;;;;;;;40.45;35.50;;;14.70;99.90;;;;;;5005070;28;20129;-58
2023/06/08 05:14:08;;;;;;;38.13;34.00;;;14.20;99.90;;;;;;5005353;28;20202;-58
2023/06/08 05:16:35;;;;;;;40.00;35.40;;;14.10;99.90;;;;;;5004296;28;20088;-57
2023/06/08 05:19:01;;;;;;;41.08;35.33;;;14.30;99.90;;;;;;5005977;28;20125;-58
2023/06/08 05:21:27;;;;;;;44.15;36.20;;;14.40;99.90;;;;;;5005821;28;20049;-58
2023/06/08 05:23:53;;;;;;;39.83;34.38;;;14.40;99.90;;;;;;5005858;28;20045;-58
2023/06/08 05:26:19;;;;;;;38.90;34.55;;;14.30;86.80;;;;;;5004735;28;20040;-58
2023/06/08 05:28:45;;;;;;;42.58;35.65;;;14.40;1.00;;;;;;5005654;28;20101;-59
2023/06/08 05:31:10;;;;;;;41.20;34.72;;;14.40;1.00;;;;;;5005668;28;20460;-58
2023/06/08 05:33:36;;;;;;;43.22;35.40;;;14.70;99.90;;;;;;5007572;28;20118;-58
2023/06/08 05:36:02;;;;;;;45.17;36.28;;;14.50;28.40;;;;;;5009246;28;20523;-58
2023/06/08 05:38:27;;;;;;;41.30;35.97;;;14.60;99.90;;;;;;5008060;28;20041;-59
2023/06/08 05:40:53;;;;;;;40.05;35.72;;;14.70;74.10;;;;;;5009182;28;20065;-59
2023/06/08 05:43:18;;;;;;;41.03;35.47;;;14.70;1.00;;;;;;5008067;28;20104;-60
2023/06/08 05:45:45;;;;;;;39.53;35.08;;;14.80;99.90;;;;;;5008201;28;20070;-59
2023/06/08 05:48:12;;;;;;;40.28;35.03;;;14.80;99.90;;;;;;5008065;28;20060;-59
2023/06/08 05:50:38;;;;;;;43.40;34.92;;;15.00;1.00;;;;;;5006568;28;20089;-59
2023/06/08 05:53:03;;;;;;;39.60;35.40;;;15.10;99.90;;;;;;5007301;28;20084;-59
2023/06/08 05:55:29;;;;;;;39.05;34.92;;;15.00;1.00;;;;;;5008223;28;20096;-59
2023/06/08 05:57:55;;;;;;;39.80;35.45;;;15.10;99.90;;;;;;5008351;28;20038;-59
2023/06/08 06:00:21;;;;;;;38.40;34.42;;;15.00;1.00;;;;;;5008515;28;20065;-59
2023/06/08 06:02:46;;;;;;;41.47;35.55;;;15.00;99.90;;;;;;5009124;28;20045;-59
2023/06/08 06:05:12;;;;;;;39.22;35.22;;;15.20;28.40;;;;;;5007897;28;20091;-59
2023/06/08 06:07:38;;;;;;;41.30;35.75;;;15.00;1.00;;;;;;5004185;28;20065;-60
2023/06/08 06:10:04;;;;;;;40.17;35.60;;;15.10;99.90;;;;;;5003276;28;20077;-59
2023/06/08 06:12:30;;;;;;;41.72;35.88;;;15.00;99.90;;;;;;5007475;28;20037;-59
2023/06/08 06:14:56;;;;;;;39.90;35.55;;;15.10;1.00;;;;;;5006430;28;20041;-59
2023/06/08 06:17:22;;;;;;;39.55;35.45;;;15.10;1.00;;;;;;5005719;28;20534;-59
2023/06/08 06:19:48;;;;;;;44.97;35.70;;;15.20;99.90;;;;;;5003562;28;20054;-60
2023/06/08 06:22:15;;;;;;;38.65;34.65;;;15.30;99.90;;;;;;5006591;28;20049;-59
2023/06/08 06:24:40;;;;;;;40.63;36.35;;;15.30;99.30;;;;;;5007095;28;20044;-60
2023/06/08 06:27:06;;;;;;;38.90;34.78;;;15.30;13.30;;;;;;5008299;28;20367;-60
2023/06/08 06:29:32;;;;;;;40.55;35.55;;;15.30;1.00;;;;;;5006553;28;20073;-60
2023/06/08 06:31:58;;;;;;;39.80;35.30;;;15.40;1.00;;;;;;5007407;28;20041;-59
2023/06/08 06:34:24;;;;;;;39.53;35.10;;;15.70;99.90;;;;;;5008000;28;20397;-59
2023/06/08 06:36:50;;;;;;;37.90;34.00;;;15.50;99.90;;;;;;5007516;28;20042;-59
2023/06/08 06:39:15;;;;;;;39.40;34.72;;;15.60;99.90;;;;;;5007909;28;20042;-59
2023/06/08 06:41:41;;;;;;;38.88;34.78;;;15.70;99.90;;;;;;5011537;28;20057;-59
2023/06/08 06:44:08;;;;;;;38.08;34.08;;;15.70;41.80;;;;;;5007305;28;20041;-59
2023/06/08 06:46:34;;;;;;;39.13;34.20;;;15.70;1.00;;;;;;5004617;28;20046;-60
2023/06/08 06:49:00;;;;;;;37.53;33.55;;;15.80;1.00;;;;;;5005519;28;20076;-60
2023/06/08 06:51:25;;;;;;;42.00;34.58;;;15.90;1.00;;;;;;5005635;28;20530;-62
2023/06/08 06:53:51;;;;;;;37.50;33.55;;;15.90;1.00;;;;;;5005963;28;20137;-59
2023/06/08 06:56:17;;;;;;;37.03;32.58;;;16.20;99.90;;;;;;5003172;28;20159;-59
2023/06/08 06:58:44;;;;;;;36.35;32.10;;;16.30;99.90;;;;;;5004784;28;20484;-59
2023/06/08 07:01:11;;;;;;;36.25;31.70;;;16.50;99.90;;;;;;5005022;28;20057;-60
2023/06/08 07:03:40;;;;;;;34.85;31.35;;;16.70;99.90;;;;;;5004744;28;20583;-60
2023/06/08 07:06:06;;;;;;;35.92;32.22;;;16.70;56.20;;;;;;5005587;28;20076;-60
2023/06/08 07:08:34;;;;;;;37.00;31.92;;;16.90;1.00;;;;;;5006676;28;20508;-60
2023/06/08 07:11:01;;;;;;;36.10;32.35;;;17.00;1.00;;;;;;5005840;28;20054;-60
2023/06/08 07:13:27;;;;;;;38.97;32.20;;;17.10;1.00;;;;;;5005526;28;20054;-60
2023/06/08 07:15:53;;;;;;;36.85;32.10;;;17.20;99.90;;;;;;5022116;28;20053;-60
2023/06/08 07:18:18;;;;;;;36.22;32.53;;;17.20;99.90;;;;;;5006646;28;20088;-60
2023/06/08 07:20:44;;;;;;;36.50;32.78;;;17.20;99.90;;;;;;5006473;28;20495;-60
2023/06/08 07:23:10;;;;;;;38.17;33.67;;;17.20;99.90;;;;;;5007063;28;20038;-60
2023/06/08 07:25:37;;;;;;;38.22;34.38;;;17.30;99.90;;;;;;5003220;28;20041;-60
2023/06/08 07:28:03;;;;;;;37.10;32.90;;;17.30;99.90;;;;;;5007474;28;20679;-60
2023/06/08 07:30:31;;;;;;;36.20;32.58;;;17.40;99.90;;;;;;5006497;28;20053;-60
2023/06/08 07:32:57;;;;;;;37.92;33.08;;;17.50;99.90;;;;;;5007416;28;20400;-59
2023/06/08 07:35:23;;;;;;;41.22;35.08;;;17.60;91.70;;;;;;5005376;28;20100;-60
2023/06/08 07:37:49;;;;;;;37.20;33.35;;;17.70;60.60;;;;;;5007029;28;20492;-59
2023/06/08 07:40:17;;;;;;;41.22;34.97;;;17.90;6.10;;;;;;5007053;28;20059;-59
2023/06/08 07:42:43;;;;;;;36.95;33.08;;;17.80;1.00;;;;;;5005542;28;20045;-60
2023/06/08 07:45:09;;;;;;;36.50;32.63;;;17.80;1.00;;;;;;5004950;28;20514;-60
2023/06/08 07:47:34;;;;;;;36.38;32.42;;;17.90;1.00;;;;;;5000993;28;20037;-60
2023/06/08 07:50:00;;;;;;;35.85;32.35;;;17.80;1.00;;;;;;5002452;28;20042;-60
2023/06/08 07:52:26;;;;;;;36.90;33.15;;;18.00;1.00;;;;;;5003019;28;20049;-60
2023/06/08 07:54:52;;;;;;;37.50;33.75;;;18.10;1.00;;;;;;5001595;28;20440;-60
2023/06/08 07:57:19;;;;;;;36.10;32.53;;;18.10;1.00;;;;;;4999001;28;20046;-60
2023/06/08 07:59:44;;;;;;;37.03;32.33;;;18.10;1.00;;;;;;5005744;28;20048;-60
2023/06/08 08:02:10;;;;;;;37.10;33.13;;;18.10;1.00;;;;;;5006812;28;20415;-60
2023/06/08 08:04:36;;;;;;;36.33;32.53;;;18.20;1.00;;;;;;5003378;28;20048;-60
2023/06/08 08:07:02;;;;;;;33.72;30.33;;;18.40;1.00;;;;;;5004196;28;20117;-60
2023/06/08 08:09:28;;;;;;;33.65;30.17;;;18.40;1.00;;;;;;5002032;28;20100;-60
2023/06/08 08:11:53;;;;;;;34.03;30.67;;;18.50;99.90;;;;;;5003409;28;20045;-59
2023/06/08 08:14:19;;;;;;;35.47;32.00;;;18.50;99.90;;;;;;5004162;28;20057;-59
2023/06/08 08:16:45;;;;;;;42.38;31.90;;;18.60;99.90;;;;;;5002733;28;20081;-60
2023/06/08 08:19:10;;;;;;;35.15;31.55;;;18.70;99.90;;;;;;5002927;28;20405;-59
2023/06/08 08:21:36;;;;;;;35.88;32.05;;;18.60;99.90;;;;;;5006574;28;20032;-60
2023/06/08 08:24:02;;;;;;;34.00;30.70;;;18.70;99.90;;;;;;5005160;28;20048;-59
2023/06/08 08:26:28;;;;;;;35.22;31.52;;;18.60;99.90;;;;;;5008763;28;20419;-59
2023/06/08 08:28:55;;;;;;;35.88;30.58;;;18.70;99.90;;;;;;5008610;28;20045;-59
2023/06/08 08:31:21;;;;;;;34.13;30.73;;;18.80;99.90;;;;;;5009435;28;20045;-59
2023/06/08 08:33:46;;;;;;;36.72;27.23;;;18.70;99.90;;;;;;5007319;28;20471;-60
2023/06/08 08:36:12;;;;;;;35.00;31.50;;;18.80;99.90;;;;;;5005656;28;20121;-59
2023/06/08 08:38:40;;;;;;;30.70;27.60;;;18.80;99.90;;;;;;5004282;28;20033;-60
2023/06/08 08:41:11;;;;;;;33.58;29.95;;;18.70;99.90;;;;;;5003265;28;20046;-60
2023/06/08 08:44:00;;;;;;;33.38;29.98;;;18.80;99.90;;;;;;5003813;28;20057;-60
2023/06/08 08:46:27;;;;;;;33.47;30.05;;;18.90;99.90;;;;;;5003533;28;20128;-60
2023/06/08 08:48:58;;;;;;;33.10;29.77;;;18.80;99.90;;;;;;5004054;28;20519;-60
2023/06/08 08:51:25;;;;;;;33.80;30.30;;;18.70;99.90;;;;;;5003317;28;20170;-60
2023/06/08 08:53:51;;;;;;;32.60;29.52;;;19.00;99.90;;;;;;5003883;28;20419;-60
2023/06/08 08:56:19;;;;;;;30.50;27.42;;;19.00;99.90;;;;;;5003860;28;20382;-59
2023/06/08 08:58:47;;;;;;;28.77;25.77;;;19.10;99.90;;;;;;5004063;28;20049;-59
2023/06/08 09:01:13;;;;;;;30.88;27.63;;;19.40;99.90;;;;;;5002895;28;20068;-60
2023/06/08 09:03:39;;;;;;;33.03;29.73;;;19.00;99.90;;;;;;5000837;28;20044;-60
2023/06/08 09:06:06;;;;;;;33.08;29.63;;;19.10;99.90;;;;;;5002629;28;20038;-60
2023/06/08 09:08:32;;;;;;;31.95;28.80;;;19.00;99.90;;;;;;5006501;28;20061;-59
2023/06/08 09:11:04;;;;;;;32.13;28.75;;;19.20;99.90;;;;;;5009402;28;20046;-59
2023/06/08 09:13:31;;;;;;;34.65;28.58;;;19.20;99.90;;;;;;5009596;28;20125;-59
2023/06/08 09:16:07;;;;;;;33.72;30.13;;;19.20;99.90;;;;;;5007580;28;20042;-60
2023/06/08 09:18:33;;;;;;;31.10;28.15;;;19.10;99.90;;;;;;5007986;28;20042;-59
2023/06/08 09:21:17;;;;;;;32.53;29.35;;;19.10;99.90;;;;;;5006509;28;20053;-60
2023/06/08 09:23:43;;;;;;;33.95;30.42;;;19.10;99.90;;;;;;5009530;28;20042;-59
2023/06/08 09:26:08;;;;;;;34.25;29.98;;;19.10;99.90;;;;;;5008757;28;20057;-59
2023/06/08 09:28:37;;;;;;;33.85;30.33;;;19.20;99.90;;;;;;5008866;28;20115;-59
2023/06/08 09:31:09;;;;;;;34.15;30.67;;;19.10;99.90;;;;;;5007667;28;20077;-59
2023/06/08 09:33:34;;;;;;;31.70;28.67;;;19.10;99.90;;;;;;5008195;28;20488;-60
2023/06/08 09:36:01;;;;;;;34.28;30.60;;;19.10;99.90;;;;;;5008696;28;20053;-60
2023/06/08 09:38:28;;;;;;;32.00;28.73;;;19.30;99.90;;;;;;5009260;28;20411;-59
2023/06/08 09:41:14;;;;;;;28.42;25.45;;;19.30;99.90;;;;;;5007604;28;20081;-60
2023/06/08 09:43:42;;;;;;;32.22;25.52;;;19.60;99.90;;;;;;5006688;28;20463;-60
2023/06/08 09:46:11;;;;;;;26.02;23.42;;;19.40;99.90;;;;;;5007806;28;20046;-60
2023/06/08 09:48:49;;;;;;;27.23;24.27;;;19.40;99.90;;;;;;5007331;28;20041;-60
2023/06/08 09:51:15;;;;;;;30.63;27.58;;;19.20;99.90;;;;;;5008042;28;20117;-60
2023/06/08 09:53:43;;;;;;;27.13;24.27;;;19.20;99.90;;;;;;5008324;28;20157;-60
2023/06/08 09:56:09;;;;;;;28.65;25.98;;;19.20;99.90;;;;;;5008226;28;20030;-60
2023/06/08 09:58:35;;;;;;;29.45;26.52;;;19.30;99.90;;;;;;5008141;28;20157;-59
2023/06/08 10:01:05;;;;;;;28.48;25.77;;;19.60;99.90;;;;;;5009196;28;20512;-59
2023/06/08 10:03:39;;;;;;;30.15;26.65;;;19.40;99.90;;;;;;5008652;28;20499;-60
2023/06/08 10:06:06;;;;;;;27.70;25.10;;;19.40;99.90;;;;;;5007069;28;20058;-59
2023/06/08 10:08:36;;;;;;;30.48;27.35;;;19.30;99.90;;;;;;5006283;28;20045;-60
2023/06/08 10:11:03;;;;;;;26.63;24.02;;;19.60;99.90;;;;;;5008304;28;20042;-59
2023/06/08 10:13:30;;;;;;;26.50;23.70;;;19.40;99.90;;;;;;5008143;28;20056;-60
2023/06/08 10:15:56;;;;;;;26.40;23.83;;;19.40;99.90;;;;;;5007713;28;20053;-59
2023/06/08 10:18:22;;;;;;;28.70;25.20;;;19.40;99.90;;;;;;5007233;28;20429;-60
2023/06/08 10:20:48;;;;;;;28.50;25.65;;;19.20;99.90;;;;;;5003976;28;20050;-59
2023/06/08 10:23:14;;;;;;;32.55;28.60;;;19.20;99.90;;;;;;5008653;28;20065;-59
2023/06/08 10:25:41;;;;;;;30.58;25.98;;;19.30;99.90;;;;;;5004174;28;20108;-59
2023/06/08 10:28:08;;;;;;;28.75;24.70;;;19.40;99.90;;;;;;5008175;28;20629;-59
2023/06/08 10:30:41;;;;;;;27.23;24.48;;;19.40;99.90;;;;;;5006394;28;20034;-60
2023/06/08 10:33:11;;;;;;;28.60;25.65;;;19.20;99.90;;;;;;5007256;28;20041;-60
2023/06/08 10:35:40;;;;;;;28.88;25.88;;;19.30;99.90;;;;;;5007971;28;20034;-59
2023/06/08 10:38:16;;;;;;;29.95;27.17;;;19.30;99.90;;;;;;5008619;28;20042;-60
2023/06/08 10:40:47;;;;;;;29.35;26.48;;;19.30;99.90;;;;;;5008517;28;20041;-60
2023/06/08 10:43:13;;;;;;;26.63;23.80;;;19.70;99.90;;;;;;5007739;28;20065;-59
2023/06/08 10:45:45;;;;;;;28.58;25.77;;;19.30;99.90;;;;;;5007872;28;20121;-60
2023/06/08 10:48:15;;;;;;;31.38;28.45;;;19.20;99.90;;;;;;5008465;28;20073;-60
2023/06/08 10:50:45;;;;;;;29.98;27.00;;;19.10;99.90;;;;;;5007483;28;20057;-59
2023/06/08 10:53:11;;;;;;;29.50;26.45;;;19.10;99.90;;;;;;5004603;28;20420;-59
2023/06/08 10:55:37;;;;;;;26.75;24.17;;;19.30;99.90;;;;;;5007494;28;20034;-60
2023/06/08 10:58:21;;;;;;;33.75;24.83;;;19.20;99.90;;;;;;5005664;28;20045;-60
2023/06/08 11:00:52;;;;;;;28.60;25.77;;;19.00;99.90;;;;;;5007505;28;20053;-59
2023/06/08 11:03:21;;;;;;;29.98;27.05;;;19.00;99.90;;;;;;5006572;28;20037;-59
2023/06/08 11:05:53;;;;;;;31.60;28.30;;;18.90;99.90;;;;;;5003639;28;20131;-60
2023/06/08 11:08:19;;;;;;;28.67;25.85;;;19.20;99.90;;;;;;5005675;28;20076;-60
2023/06/08 11:10:52;;;;;;;27.80;25.10;;;19.10;99.90;;;;;;5007232;28;20175;-59
2023/06/08 11:13:17;;;;;;;29.27;26.50;;;19.20;99.90;;;;;;5001605;28;20044;-59
2023/06/08 11:15:49;;;;;;;32.20;29.05;;;19.20;99.90;;;;;;5005566;28;20041;-59
2023/06/08 11:18:19;;;;;;;31.52;28.30;;;19.10;99.90;;;;;;5003719;28;20042;-60
2023/06/08 11:20:44;;;;;;;31.40;28.50;;;19.00;99.90;;;;;;5007291;28;20065;-60
2023/06/08 11:23:12;;;;;;;31.33;28.10;;;19.00;99.90;;;;;;5007331;28;20037;-60
2023/06/08 11:25:38;;;;;;;32.03;28.83;;;18.90;99.90;;;;;;5006120;28;20128;-60
2023/06/08 11:28:07;;;;;;;31.45;28.40;;;18.90;99.90;;;;;;5003930;28;20073;-59
2023/06/08 11:30:34;;;;;;;31.85;28.88;;;18.80;99.90;;;;;;5005402;28;20038;-60
2023/06/08 11:33:04;;;;;;;28.40;25.55;;;18.90;99.90;;;;;;5006536;28;20114;-60
2023/06/08 11:35:29;;;;;;;29.63;26.58;;;19.10;99.90;;;;;;5009699;28;20084;-60
2023/06/08 11:37:59;;;;;;;28.80;25.85;;;19.00;99.90;;;;;;5010719;28;20156;-59
2023/06/08 11:40:24;;;;;;;31.02;27.90;;;19.10;99.90;;;;;;5010583;28;20053;-59
2023/06/08 11:42:52;;;;;;;31.77;28.95;;;18.80;99.90;;;;;;5011079;28;20058;-59
2023/06/08 11:45:18;;;;;;;30.13;27.15;;;18.90;99.90;;;;;;5008889;28;20058;-60
2023/06/08 11:47:44;;;;;;;33.65;28.10;;;18.80;99.90;;;;;;5008504;28;20057;-60
2023/06/08 11:50:14;;;;;;;32.95;30.02;;;20.00;99.90;;;;;;5006501;28;20046;-59
2023/06/08 11:52:41;;;;;;;34.25;30.92;;;18.90;99.90;;;;;;5006607;28;20169;-60
2023/06/08 11:55:18;;;;;;;31.98;28.65;;;18.90;99.90;;;;;;5006065;28;20479;-59
2023/06/08 11:57:55;;;;;;;32.72;29.58;;;18.90;99.90;;;;;;5004642;28;20041;-59
2023/06/08 12:00:23;;;;;;;30.75;27.77;;;18.90;99.90;;;;;;5001192;28;20496;-60
2023/06/08 12:02:49;;;;;;;34.60;31.40;;;19.00;99.90;;;;;;5004252;28;20053;-60
2023/06/08 12:05:21;;;;;;;28.70;26.13;;;18.90;99.90;;;;;;5002740;28;20041;-60
2023/06/08 12:08:04;;;;;;;32.70;29.75;;;18.90;99.90;;;;;;5006333;28;20325;-59
2023/06/08 12:10:40;;;;;;;31.50;28.67;;;18.90;99.90;;;;;;5004255;28;20034;-59
2023/06/08 12:13:10;;;;;;;;;;;18.90;99.90;;;;;;5008447;28;20040;-60
2023/06/08 12:15:47;;;;;;;31.65;28.63;;;18.80;99.90;;;;;;5002485;28;20322;-60
2023/06/08 12:18:17;;;;;;;31.67;28.77;;;18.80;99.90;;;;;;5017046;28;20081;-60
2023/06/08 12:20:43;;;;;;;28.17;25.25;;;18.80;99.90;;;;;;5003953;28;20045;-59
2023/06/08 12:23:11;;;;;;;30.52;27.27;;;18.90;99.90;;;;;;5001618;28;20038;-59
2023/06/08 12:25:37;;;;;;;26.13;23.08;;;18.90;99.90;;;;;;5003161;28;20143;-59
2023/06/08 12:28:03;;;;;;;28.05;25.25;;;18.90;99.90;;;;;;5002469;28;20104;-59
2023/06/08 12:30:29;;;;;;;38.00;28.10;;;19.00;99.90;;;;;;5001345;28;20042;-59